sensor_id;sensor_type;location;lat;lon;timestamp;P1;durP1;ratioP1;P2;durP2;ratioP2
49946;SDS011;35839;48.662;13.300;2024-03-29T00:00:39;5.37;;;3.90;;
49946;SDS011;35839;48.662;13.300;2024-03-29T00:03:05;4.23;;;3.43;;
49946;SDS011;35839;48.662;13.300;2024-03-29T00:05:31;3.73;;;3.30;;
49946;SDS011;35839;48.662;13.300;2024-03-29T00:07:57;4.30;;;3.30;;
49946;SDS011;35839;48.662;13.300;2024-03-29T00:10:22;5.47;;;3.63;;
49946;SDS011;35839;48.662;13.300;2024-03-29T00:12:48;4.30;;;3.47;;
49946;SDS011;35839;48.662;13.300;2024-03-29T00:15:13;4.30;;;3.00;;
49946;SDS011;35839;48.662;13.300;2024-03-29T00:17:39;5.90;;;3.17;;
49946;SDS011;35839;48.662;13.300;2024-03-29T00:20:04;5.23;;;3.97;;
49946;SDS011;35839;48.662;13.300;2024-03-29T00:22:31;4.83;;;3.40;;
49946;SDS011;35839;48.662;13.300;2024-03-29T00:24:57;8.93;;;3.57;;
49946;SDS011;35839;48.662;13.300;2024-03-29T00:27:22;4.60;;;3.97;;
49946;SDS011;35839;48.662;13.300;2024-03-29T00:29:50;9.50;;;3.33;;
49946;SDS011;35839;48.662;13.300;2024-03-29T00:32:18;6.43;;;3.73;;
49946;SDS011;35839;48.662;13.300;2024-03-29T00:34:44;3.93;;;3.50;;
49946;SDS011;35839;48.662;13.300;2024-03-29T00:37:10;9.53;;;3.47;;
49946;SDS011;35839;48.662;13.300;2024-03-29T00:39:36;6.23;;;4.13;;
49946;SDS011;35839;48.662;13.300;2024-03-29T00:42:01;29.10;;;4.90;;
49946;SDS011;35839;48.662;13.300;2024-03-29T00:44:27;13.10;;;4.03;;
49946;SDS011;35839;48.662;13.300;2024-03-29T00:46:52;13.10;;;4.90;;
49946;SDS011;35839;48.662;13.300;2024-03-29T00:49:18;21.27;;;4.63;;
49946;SDS011;35839;48.662;13.300;2024-03-29T00:51:44;13.20;;;4.47;;
49946;SDS011;35839;48.662;13.300;2024-03-29T00:54:09;4.43;;;3.60;;
49946;SDS011;35839;48.662;13.300;2024-03-29T00:56:35;5.33;;;3.63;;
49946;SDS011;35839;48.662;13.300;2024-03-29T00:59:00;4.30;;;3.83;;
49946;SDS011;35839;48.662;13.300;2024-03-29T01:01:25;6.50;;;3.60;;
49946;SDS011;35839;48.662;13.300;2024-03-29T01:03:51;6.43;;;4.73;;
49946;SDS011;35839;48.662;13.300;2024-03-29T01:06:17;6.53;;;3.63;;
49946;SDS011;35839;48.662;13.300;2024-03-29T01:08:42;5.00;;;4.13;;
49946;SDS011;35839;48.662;13.300;2024-03-29T01:11:08;5.23;;;4.00;;
49946;SDS011;35839;48.662;13.300;2024-03-29T01:13:33;8.83;;;3.77;;
49946;SDS011;35839;48.662;13.300;2024-03-29T01:15:58;4.73;;;3.60;;
49946;SDS011;35839;48.662;13.300;2024-03-29T01:18:24;4.70;;;3.73;;
49946;SDS011;35839;48.662;13.300;2024-03-29T01:20:49;7.57;;;5.43;;
49946;SDS011;35839;48.662;13.300;2024-03-29T01:23:14;5.13;;;3.93;;
49946;SDS011;35839;48.662;13.300;2024-03-29T01:25:40;4.47;;;3.60;;
49946;SDS011;35839;48.662;13.300;2024-03-29T01:28:05;4.77;;;3.73;;
49946;SDS011;35839;48.662;13.300;2024-03-29T01:30:32;6.13;;;3.80;;
49946;SDS011;35839;48.662;13.300;2024-03-29T01:32:58;4.03;;;3.63;;
49946;SDS011;35839;48.662;13.300;2024-03-29T01:35:23;5.23;;;3.57;;
49946;SDS011;35839;48.662;13.300;2024-03-29T01:37:50;4.30;;;3.67;;
49946;SDS011;35839;48.662;13.300;2024-03-29T01:40:16;5.03;;;3.80;;
49946;SDS011;35839;48.662;13.300;2024-03-29T01:42:41;4.67;;;4.00;;
49946;SDS011;35839;48.662;13.300;2024-03-29T01:45:06;5.50;;;4.47;;
49946;SDS011;35839;48.662;13.300;2024-03-29T01:47:33;6.23;;;4.53;;
49946;SDS011;35839;48.662;13.300;2024-03-29T01:49:58;4.83;;;3.67;;
49946;SDS011;35839;48.662;13.300;2024-03-29T01:52:24;5.67;;;4.30;;
49946;SDS011;35839;48.662;13.300;2024-03-29T01:54:50;5.77;;;4.07;;
49946;SDS011;35839;48.662;13.300;2024-03-29T01:57:16;4.83;;;4.10;;
49946;SDS011;35839;48.662;13.300;2024-03-29T01:59:42;6.87;;;4.33;;
49946;SDS011;35839;48.662;13.300;2024-03-29T02:02:10;6.50;;;4.00;;
49946;SDS011;35839;48.662;13.300;2024-03-29T02:04:36;5.53;;;4.27;;
49946;SDS011;35839;48.662;13.300;2024-03-29T02:07:02;5.33;;;4.33;;
49946;SDS011;35839;48.662;13.300;2024-03-29T02:09:28;5.33;;;4.80;;
49946;SDS011;35839;48.662;13.300;2024-03-29T02:11:54;5.17;;;4.10;;
49946;SDS011;35839;48.662;13.300;2024-03-29T02:14:19;4.70;;;4.10;;
49946;SDS011;35839;48.662;13.300;2024-03-29T02:16:44;5.30;;;4.37;;
49946;SDS011;35839;48.662;13.300;2024-03-29T02:19:10;10.17;;;4.67;;
49946;SDS011;35839;48.662;13.300;2024-03-29T02:21:36;5.67;;;5.07;;
49946;SDS011;35839;48.662;13.300;2024-03-29T02:24:07;5.87;;;4.73;;
49946;SDS011;35839;48.662;13.300;2024-03-29T02:26:34;8.10;;;4.93;;
49946;SDS011;35839;48.662;13.300;2024-03-29T02:29:02;6.70;;;5.33;;
49946;SDS011;35839;48.662;13.300;2024-03-29T02:31:28;5.07;;;4.50;;
49946;SDS011;35839;48.662;13.300;2024-03-29T02:33:55;7.13;;;5.33;;
49946;SDS011;35839;48.662;13.300;2024-03-29T02:36:20;12.53;;;9.60;;
49946;SDS011;35839;48.662;13.300;2024-03-29T02:38:45;19.67;;;13.07;;
49946;SDS011;35839;48.662;13.300;2024-03-29T02:41:11;9.00;;;6.93;;
49946;SDS011;35839;48.662;13.300;2024-03-29T02:43:36;5.83;;;4.90;;
49946;SDS011;35839;48.662;13.300;2024-03-29T02:46:02;7.87;;;4.67;;
49946;SDS011;35839;48.662;13.300;2024-03-29T02:48:27;4.47;;;4.00;;
49946;SDS011;35839;48.662;13.300;2024-03-29T02:50:52;4.97;;;3.80;;
49946;SDS011;35839;48.662;13.300;2024-03-29T02:53:18;6.57;;;3.83;;
49946;SDS011;35839;48.662;13.300;2024-03-29T02:55:43;4.53;;;3.90;;
49946;SDS011;35839;48.662;13.300;2024-03-29T02:58:08;7.40;;;4.60;;
49946;SDS011;35839;48.662;13.300;2024-03-29T03:00:34;5.40;;;4.63;;
49946;SDS011;35839;48.662;13.300;2024-03-29T03:02:59;7.00;;;4.73;;
49946;SDS011;35839;48.662;13.300;2024-03-29T03:05:25;7.60;;;4.50;;
49946;SDS011;35839;48.662;13.300;2024-03-29T03:07:51;4.13;;;3.73;;
49946;SDS011;35839;48.662;13.300;2024-03-29T03:10:35;4.93;;;3.70;;
49946;SDS011;35839;48.662;13.300;2024-03-29T03:13:19;8.37;;;4.80;;
49946;SDS011;35839;48.662;13.300;2024-03-29T03:15:45;6.20;;;3.73;;
49946;SDS011;35839;48.662;13.300;2024-03-29T03:18:10;5.23;;;3.63;;
49946;SDS011;35839;48.662;13.300;2024-03-29T03:20:35;6.20;;;3.70;;
49946;SDS011;35839;48.662;13.300;2024-03-29T03:23:03;7.10;;;4.13;;
49946;SDS011;35839;48.662;13.300;2024-03-29T03:25:28;14.77;;;8.03;;
49946;SDS011;35839;48.662;13.300;2024-03-29T03:27:54;8.40;;;4.73;;
49946;SDS011;35839;48.662;13.300;2024-03-29T03:30:19;7.37;;;5.67;;
49946;SDS011;35839;48.662;13.300;2024-03-29T03:32:45;10.83;;;6.87;;
49946;SDS011;35839;48.662;13.300;2024-03-29T03:35:10;12.20;;;7.67;;
49946;SDS011;35839;48.662;13.300;2024-03-29T03:37:35;13.00;;;8.63;;
49946;SDS011;35839;48.662;13.300;2024-03-29T03:40:01;14.37;;;7.73;;
49946;SDS011;35839;48.662;13.300;2024-03-29T03:42:26;27.17;;;16.80;;
49946;SDS011;35839;48.662;13.300;2024-03-29T03:44:51;21.27;;;13.70;;
49946;SDS011;35839;48.662;13.300;2024-03-29T03:47:17;13.67;;;8.50;;
49946;SDS011;35839;48.662;13.300;2024-03-29T03:49:42;9.33;;;6.77;;
49946;SDS011;35839;48.662;13.300;2024-03-29T03:52:07;9.47;;;6.23;;
49946;SDS011;35839;48.662;13.300;2024-03-29T03:54:33;6.50;;;4.57;;
49946;SDS011;35839;48.662;13.300;2024-03-29T03:56:59;6.97;;;4.73;;
49946;SDS011;35839;48.662;13.300;2024-03-29T03:59:25;11.27;;;7.67;;
49946;SDS011;35839;48.662;13.300;2024-03-29T04:01:50;9.03;;;7.33;;
49946;SDS011;35839;48.662;13.300;2024-03-29T04:04:17;9.53;;;6.57;;
49946;SDS011;35839;48.662;13.300;2024-03-29T04:06:42;8.10;;;6.33;;
49946;SDS011;35839;48.662;13.300;2024-03-29T04:09:08;10.03;;;6.77;;
49946;SDS011;35839;48.662;13.300;2024-03-29T04:11:33;7.60;;;5.20;;
49946;SDS011;35839;48.662;13.300;2024-03-29T04:13:59;9.50;;;5.40;;
49946;SDS011;35839;48.662;13.300;2024-03-29T04:16:24;14.17;;;9.17;;
49946;SDS011;35839;48.662;13.300;2024-03-29T04:18:50;18.27;;;11.40;;
49946;SDS011;35839;48.662;13.300;2024-03-29T04:21:15;7.33;;;5.50;;
49946;SDS011;35839;48.662;13.300;2024-03-29T04:23:40;6.03;;;4.60;;
49946;SDS011;35839;48.662;13.300;2024-03-29T04:26:06;6.13;;;4.27;;
49946;SDS011;35839;48.662;13.300;2024-03-29T04:28:31;5.53;;;4.07;;
49946;SDS011;35839;48.662;13.300;2024-03-29T04:30:57;5.47;;;4.10;;
49946;SDS011;35839;48.662;13.300;2024-03-29T04:33:24;6.20;;;5.23;;
49946;SDS011;35839;48.662;13.300;2024-03-29T04:36:02;5.43;;;4.00;;
49946;SDS011;35839;48.662;13.300;2024-03-29T04:38:29;10.40;;;5.90;;
49946;SDS011;35839;48.662;13.300;2024-03-29T04:40:56;6.23;;;4.43;;
49946;SDS011;35839;48.662;13.300;2024-03-29T04:43:23;8.87;;;4.40;;
49946;SDS011;35839;48.662;13.300;2024-03-29T04:46:02;5.80;;;3.90;;
49946;SDS011;35839;48.662;13.300;2024-03-29T04:48:29;6.60;;;4.60;;
49946;SDS011;35839;48.662;13.300;2024-03-29T04:50:55;7.47;;;4.90;;
49946;SDS011;35839;48.662;13.300;2024-03-29T04:53:20;11.30;;;5.70;;
49946;SDS011;35839;48.662;13.300;2024-03-29T04:55:46;19.53;;;8.63;;
49946;SDS011;35839;48.662;13.300;2024-03-29T04:58:17;29.80;;;12.90;;
49946;SDS011;35839;48.662;13.300;2024-03-29T05:00:43;14.77;;;7.63;;
49946;SDS011;35839;48.662;13.300;2024-03-29T05:03:08;9.77;;;6.23;;
49946;SDS011;35839;48.662;13.300;2024-03-29T05:05:33;6.63;;;5.07;;
49946;SDS011;35839;48.662;13.300;2024-03-29T05:07:59;7.63;;;5.43;;
49946;SDS011;35839;48.662;13.300;2024-03-29T05:10:24;7.00;;;5.20;;
49946;SDS011;35839;48.662;13.300;2024-03-29T05:12:49;6.23;;;4.00;;
49946;SDS011;35839;48.662;13.300;2024-03-29T05:15:15;6.90;;;5.17;;
49946;SDS011;35839;48.662;13.300;2024-03-29T05:17:41;5.30;;;4.07;;
49946;SDS011;35839;48.662;13.300;2024-03-29T05:20:07;5.50;;;4.10;;
49946;SDS011;35839;48.662;13.300;2024-03-29T05:22:32;7.63;;;4.57;;
49946;SDS011;35839;48.662;13.300;2024-03-29T05:24:58;6.07;;;4.30;;
49946;SDS011;35839;48.662;13.300;2024-03-29T05:27:23;5.60;;;3.77;;
49946;SDS011;35839;48.662;13.300;2024-03-29T05:29:49;7.87;;;4.60;;
49946;SDS011;35839;48.662;13.300;2024-03-29T05:32:14;6.17;;;3.90;;
49946;SDS011;35839;48.662;13.300;2024-03-29T05:34:40;7.87;;;3.83;;
49946;SDS011;35839;48.662;13.300;2024-03-29T05:37:06;5.67;;;3.90;;
49946;SDS011;35839;48.662;13.300;2024-03-29T05:39:32;5.00;;;3.70;;
49946;SDS011;35839;48.662;13.300;2024-03-29T05:41:58;5.23;;;3.60;;
49946;SDS011;35839;48.662;13.300;2024-03-29T05:44:23;6.87;;;4.33;;
49946;SDS011;35839;48.662;13.300;2024-03-29T05:46:49;16.97;;;6.53;;
49946;SDS011;35839;48.662;13.300;2024-03-29T05:49:15;10.60;;;4.70;;
49946;SDS011;35839;48.662;13.300;2024-03-29T05:51:41;15.03;;;7.33;;
49946;SDS011;35839;48.662;13.300;2024-03-29T05:54:07;17.20;;;7.33;;
49946;SDS011;35839;48.662;13.300;2024-03-29T05:56:33;74.10;;;33.60;;
49946;SDS011;35839;48.662;13.300;2024-03-29T05:58:58;94.63;;;40.73;;
49946;SDS011;35839;48.662;13.300;2024-03-29T06:01:23;29.37;;;15.97;;
49946;SDS011;35839;48.662;13.300;2024-03-29T06:03:49;19.93;;;10.40;;
49946;SDS011;35839;48.662;13.300;2024-03-29T06:06:19;8.13;;;5.03;;
49946;SDS011;35839;48.662;13.300;2024-03-29T06:08:48;6.65;;;4.57;;
49946;SDS011;35839;48.662;13.300;2024-03-29T06:11:14;8.63;;;3.97;;
49946;SDS011;35839;48.662;13.300;2024-03-29T06:13:39;5.63;;;4.03;;
49946;SDS011;35839;48.662;13.300;2024-03-29T06:16:26;7.37;;;4.63;;
49946;SDS011;35839;48.662;13.300;2024-03-29T06:19:11;5.80;;;4.07;;
49946;SDS011;35839;48.662;13.300;2024-03-29T06:21:36;7.27;;;5.27;;
49946;SDS011;35839;48.662;13.300;2024-03-29T06:24:08;8.73;;;4.73;;
49946;SDS011;35839;48.662;13.300;2024-03-29T06:26:39;4.27;;;3.20;;
49946;SDS011;35839;48.662;13.300;2024-03-29T06:29:04;10.23;;;7.13;;
49946;SDS011;35839;48.662;13.300;2024-03-29T06:31:31;5.03;;;3.60;;
49946;SDS011;35839;48.662;13.300;2024-03-29T06:33:59;6.80;;;3.03;;
49946;SDS011;35839;48.662;13.300;2024-03-29T06:36:25;11.40;;;6.67;;
49946;SDS011;35839;48.662;13.300;2024-03-29T06:38:51;10.20;;;5.77;;
49946;SDS011;35839;48.662;13.300;2024-03-29T06:41:17;36.47;;;17.53;;
49946;SDS011;35839;48.662;13.300;2024-03-29T06:43:42;4.63;;;3.17;;
49946;SDS011;35839;48.662;13.300;2024-03-29T06:46:11;8.53;;;4.63;;
49946;SDS011;35839;48.662;13.300;2024-03-29T06:48:36;5.70;;;2.87;;
49946;SDS011;35839;48.662;13.300;2024-03-29T06:51:02;5.03;;;3.50;;
49946;SDS011;35839;48.662;13.300;2024-03-29T06:53:28;3.43;;;2.37;;
49946;SDS011;35839;48.662;13.300;2024-03-29T06:55:57;4.50;;;2.40;;
49946;SDS011;35839;48.662;13.300;2024-03-29T06:58:25;3.83;;;1.70;;
49946;SDS011;35839;48.662;13.300;2024-03-29T07:00:50;4.47;;;1.93;;
49946;SDS011;35839;48.662;13.300;2024-03-29T07:03:17;2.57;;;1.57;;
49946;SDS011;35839;48.662;13.300;2024-03-29T07:05:43;2.13;;;1.47;;
49946;SDS011;35839;48.662;13.300;2024-03-29T07:08:09;2.83;;;1.60;;
49946;SDS011;35839;48.662;13.300;2024-03-29T07:10:34;8.13;;;1.73;;
49946;SDS011;35839;48.662;13.300;2024-03-29T07:13:00;8.33;;;3.60;;
49946;SDS011;35839;48.662;13.300;2024-03-29T07:15:25;4.00;;;1.70;;
49946;SDS011;35839;48.662;13.300;2024-03-29T07:17:51;2.83;;;1.63;;
49946;SDS011;35839;48.662;13.300;2024-03-29T07:20:17;2.30;;;1.77;;
49946;SDS011;35839;48.662;13.300;2024-03-29T07:22:43;5.87;;;3.50;;
49946;SDS011;35839;48.662;13.300;2024-03-29T07:25:10;5.47;;;3.00;;
49946;SDS011;35839;48.662;13.300;2024-03-29T07:27:35;13.97;;;5.93;;
49946;SDS011;35839;48.662;13.300;2024-03-29T07:30:04;4.87;;;1.97;;
49946;SDS011;35839;48.662;13.300;2024-03-29T07:34:56;3.00;;;1.40;;
49946;SDS011;35839;48.662;13.300;2024-03-29T07:37:23;2.50;;;1.10;;
49946;SDS011;35839;48.662;13.300;2024-03-29T07:39:49;2.20;;;1.10;;
49946;SDS011;35839;48.662;13.300;2024-03-29T07:42:14;3.70;;;1.20;;
49946;SDS011;35839;48.662;13.300;2024-03-29T07:44:40;1.30;;;0.97;;
49946;SDS011;35839;48.662;13.300;2024-03-29T07:47:05;2.70;;;1.23;;
49946;SDS011;35839;48.662;13.300;2024-03-29T07:49:30;2.23;;;0.90;;
49946;SDS011;35839;48.662;13.300;2024-03-29T07:51:57;1.83;;;1.10;;
49946;SDS011;35839;48.662;13.300;2024-03-29T07:54:23;4.57;;;1.00;;
49946;SDS011;35839;48.662;13.300;2024-03-29T07:56:48;0.90;;;0.70;;
49946;SDS011;35839;48.662;13.300;2024-03-29T07:59:13;1.60;;;1.13;;
49946;SDS011;35839;48.662;13.300;2024-03-29T08:01:40;0.73;;;0.70;;
49946;SDS011;35839;48.662;13.300;2024-03-29T08:04:07;0.80;;;0.80;;
49946;SDS011;35839;48.662;13.300;2024-03-29T08:06:33;2.17;;;1.10;;
49946;SDS011;35839;48.662;13.300;2024-03-29T08:08:58;1.33;;;0.93;;
49946;SDS011;35839;48.662;13.300;2024-03-29T08:11:24;0.50;;;0.37;;
49946;SDS011;35839;48.662;13.300;2024-03-29T08:13:49;2.17;;;0.77;;
49946;SDS011;35839;48.662;13.300;2024-03-29T08:16:15;0.37;;;0.37;;
49946;SDS011;35839;48.662;13.300;2024-03-29T08:18:42;2.67;;;1.40;;
49946;SDS011;35839;48.662;13.300;2024-03-29T08:21:10;2.70;;;1.10;;
49946;SDS011;35839;48.662;13.300;2024-03-29T08:23:38;5.50;;;1.57;;
49946;SDS011;35839;48.662;13.300;2024-03-29T08:26:04;2.40;;;1.00;;
49946;SDS011;35839;48.662;13.300;2024-03-29T08:28:29;1.60;;;0.70;;
49946;SDS011;35839;48.662;13.300;2024-03-29T08:31:02;0.93;;;0.52;;
49946;SDS011;35839;48.662;13.300;2024-03-29T08:33:29;1.33;;;0.88;;
49946;SDS011;35839;48.662;13.300;2024-03-29T08:35:56;0.60;;;0.40;;
49946;SDS011;35839;48.662;13.300;2024-03-29T08:38:22;1.85;;;0.40;;
49946;SDS011;35839;48.662;13.300;2024-03-29T08:40:47;1.70;;;0.60;;
49946;SDS011;35839;48.662;13.300;2024-03-29T08:43:14;1.15;;;0.55;;
49946;SDS011;35839;48.662;13.300;2024-03-29T08:45:45;2.92;;;0.80;;
49946;SDS011;35839;48.662;13.300;2024-03-29T08:48:14;0.80;;;0.60;;
49946;SDS011;35839;48.662;13.300;2024-03-29T08:50:39;0.73;;;0.63;;
49946;SDS011;35839;48.662;13.300;2024-03-29T08:53:05;1.27;;;0.50;;
49946;SDS011;35839;48.662;13.300;2024-03-29T08:55:31;1.23;;;0.52;;
49946;SDS011;35839;48.662;13.300;2024-03-29T08:57:59;0.82;;;0.50;;
49946;SDS011;35839;48.662;13.300;2024-03-29T09:00:26;1.73;;;0.73;;
49946;SDS011;35839;48.662;13.300;2024-03-29T09:02:52;2.45;;;0.50;;
49946;SDS011;35839;48.662;13.300;2024-03-29T09:05:17;1.60;;;0.57;;
49946;SDS011;35839;48.662;13.300;2024-03-29T09:07:43;1.85;;;0.98;;
49946;SDS011;35839;48.662;13.300;2024-03-29T09:10:08;1.60;;;0.70;;
49946;SDS011;35839;48.662;13.300;2024-03-29T09:12:34;1.95;;;0.50;;
49946;SDS011;35839;48.662;13.300;2024-03-29T09:14:59;2.88;;;0.30;;
49946;SDS011;35839;48.662;13.300;2024-03-29T09:17:25;0.60;;;0.60;;
49946;SDS011;35839;48.662;13.300;2024-03-29T09:19:51;3.20;;;0.70;;
49946;SDS011;35839;48.662;13.300;2024-03-29T09:22:17;0.60;;;0.60;;
49946;SDS011;35839;48.662;13.300;2024-03-29T09:24:43;2.70;;;0.43;;
49946;SDS011;35839;48.662;13.300;2024-03-29T09:27:11;2.22;;;1.02;;
49946;SDS011;35839;48.662;13.300;2024-03-29T09:29:42;1.20;;;0.47;;
49946;SDS011;35839;48.662;13.300;2024-03-29T09:32:15;0.85;;;0.52;;
49946;SDS011;35839;48.662;13.300;2024-03-29T09:34:46;1.65;;;0.88;;
49946;SDS011;35839;48.662;13.300;2024-03-29T09:37:11;2.00;;;0.73;;
49946;SDS011;35839;48.662;13.300;2024-03-29T09:39:38;2.03;;;0.70;;
49946;SDS011;35839;48.662;13.300;2024-03-29T09:42:04;4.10;;;0.82;;
49946;SDS011;35839;48.662;13.300;2024-03-29T09:44:32;6.75;;;0.68;;
49946;SDS011;35839;48.662;13.300;2024-03-29T09:47:04;0.70;;;0.30;;
49946;SDS011;35839;48.662;13.300;2024-03-29T09:49:32;0.40;;;0.35;;
49946;SDS011;35839;48.662;13.300;2024-03-29T09:52:02;1.10;;;0.35;;
49946;SDS011;35839;48.662;13.300;2024-03-29T09:54:28;1.05;;;0.50;;
49946;SDS011;35839;48.662;13.300;2024-03-29T09:56:58;0.88;;;0.40;;
49946;SDS011;35839;48.662;13.300;2024-03-29T09:59:26;3.38;;;0.50;;
49946;SDS011;35839;48.662;13.300;2024-03-29T10:01:51;1.85;;;0.55;;
49946;SDS011;35839;48.662;13.300;2024-03-29T10:04:20;0.95;;;0.50;;
49946;SDS011;35839;48.662;13.300;2024-03-29T10:06:49;0.65;;;0.38;;
49946;SDS011;35839;48.662;13.300;2024-03-29T10:09:18;0.88;;;0.40;;
49946;SDS011;35839;48.662;13.300;2024-03-29T10:11:48;2.58;;;0.60;;
49946;SDS011;35839;48.662;13.300;2024-03-29T10:14:13;0.60;;;0.20;;
49946;SDS011;35839;48.662;13.300;2024-03-29T10:16:39;4.40;;;0.40;;
49946;SDS011;35839;48.662;13.300;2024-03-29T10:19:06;1.67;;;0.50;;
49946;SDS011;35839;48.662;13.300;2024-03-29T10:21:33;4.78;;;0.50;;
49946;SDS011;35839;48.662;13.300;2024-03-29T10:24:00;2.08;;;0.45;;
49946;SDS011;35839;48.662;13.300;2024-03-29T10:26:37;0.55;;;0.55;;
49946;SDS011;35839;48.662;13.300;2024-03-29T10:29:16;0.50;;;0.40;;
49946;SDS011;35839;48.662;13.300;2024-03-29T10:31:49;1.42;;;0.60;;
49946;SDS011;35839;48.662;13.300;2024-03-29T10:34:17;1.85;;;0.50;;
49946;SDS011;35839;48.662;13.300;2024-03-29T10:36:46;1.08;;;0.65;;
49946;SDS011;35839;48.662;13.300;2024-03-29T10:39:12;0.88;;;0.40;;
49946;SDS011;35839;48.662;13.300;2024-03-29T10:41:41;0.45;;;0.40;;
49946;SDS011;35839;48.662;13.300;2024-03-29T10:44:11;1.15;;;0.60;;
49946;SDS011;35839;48.662;13.300;2024-03-29T10:46:37;0.95;;;0.30;;
49946;SDS011;35839;48.662;13.300;2024-03-29T10:49:06;2.22;;;0.47;;
49946;SDS011;35839;48.662;13.300;2024-03-29T10:51:39;1.95;;;0.90;;
49946;SDS011;35839;48.662;13.300;2024-03-29T10:54:06;0.25;;;0.25;;
49946;SDS011;35839;48.662;13.300;2024-03-29T10:56:34;0.50;;;0.50;;
49946;SDS011;35839;48.662;13.300;2024-03-29T10:59:02;1.75;;;0.50;;
49946;SDS011;35839;48.662;13.300;2024-03-29T11:01:36;0.43;;;0.30;;
49946;SDS011;35839;48.662;13.300;2024-03-29T11:04:09;1.85;;;0.47;;
49946;SDS011;35839;48.662;13.300;2024-03-29T11:06:41;1.77;;;0.52;;
49946;SDS011;35839;48.662;13.300;2024-03-29T11:09:10;2.22;;;0.63;;
49946;SDS011;35839;48.662;13.300;2024-03-29T11:11:39;0.30;;;0.30;;
49946;SDS011;35839;48.662;13.300;2024-03-29T11:14:13;1.80;;;0.40;;
49946;SDS011;35839;48.662;13.300;2024-03-29T11:16:53;1.35;;;0.47;;
49946;SDS011;35839;48.662;13.300;2024-03-29T11:19:22;1.02;;;0.35;;
49946;SDS011;35839;48.662;13.300;2024-03-29T11:21:48;0.73;;;0.40;;
49946;SDS011;35839;48.662;13.300;2024-03-29T11:24:16;1.17;;;0.65;;
49946;SDS011;35839;48.662;13.300;2024-03-29T11:26:44;1.42;;;0.63;;
49946;SDS011;35839;48.662;13.300;2024-03-29T11:29:19;1.08;;;0.50;;
49946;SDS011;35839;48.662;13.300;2024-03-29T11:31:58;1.63;;;0.60;;
49946;SDS011;35839;48.662;13.300;2024-03-29T11:34:24;3.35;;;0.80;;
49946;SDS011;35839;48.662;13.300;2024-03-29T11:36:51;1.42;;;0.55;;
49946;SDS011;35839;48.662;13.300;2024-03-29T11:39:21;0.80;;;0.50;;
49946;SDS011;35839;48.662;13.300;2024-03-29T11:41:48;0.63;;;0.63;;
49946;SDS011;35839;48.662;13.300;2024-03-29T11:44:14;1.10;;;0.68;;
49946;SDS011;35839;48.662;13.300;2024-03-29T11:46:43;0.98;;;0.50;;
49946;SDS011;35839;48.662;13.300;2024-03-29T11:49:11;4.22;;;0.57;;
49946;SDS011;35839;48.662;13.300;2024-03-29T11:51:40;2.05;;;0.40;;
49946;SDS011;35839;48.662;13.300;2024-03-29T11:54:06;0.77;;;0.50;;
49946;SDS011;35839;48.662;13.300;2024-03-29T11:56:38;0.50;;;0.50;;
49946;SDS011;35839;48.662;13.300;2024-03-29T11:59:03;0.50;;;0.50;;
49946;SDS011;35839;48.662;13.300;2024-03-29T12:01:28;0.25;;;0.25;;
49946;SDS011;35839;48.662;13.300;2024-03-29T12:04:00;1.40;;;0.60;;
49946;SDS011;35839;48.662;13.300;2024-03-29T12:06:25;1.83;;;0.57;;
49946;SDS011;35839;48.662;13.300;2024-03-29T12:08:51;1.90;;;0.50;;
49946;SDS011;35839;48.662;13.300;2024-03-29T12:11:18;0.90;;;0.40;;
49946;SDS011;35839;48.662;13.300;2024-03-29T12:13:44;1.73;;;0.47;;
49946;SDS011;35839;48.662;13.300;2024-03-29T12:16:10;0.47;;;0.43;;
49946;SDS011;35839;48.662;13.300;2024-03-29T12:18:37;0.45;;;0.38;;
49946;SDS011;35839;48.662;13.300;2024-03-29T12:21:03;0.63;;;0.38;;
49946;SDS011;35839;48.662;13.300;2024-03-29T12:23:28;1.20;;;0.45;;
49946;SDS011;35839;48.662;13.300;2024-03-29T12:25:54;1.50;;;0.50;;
49946;SDS011;35839;48.662;13.300;2024-03-29T12:28:24;1.13;;;0.50;;
49946;SDS011;35839;48.662;13.300;2024-03-29T12:30:52;2.15;;;0.70;;
49946;SDS011;35839;48.662;13.300;2024-03-29T12:33:20;0.43;;;0.35;;
49946;SDS011;35839;48.662;13.300;2024-03-29T12:35:47;0.65;;;0.45;;
49946;SDS011;35839;48.662;13.300;2024-03-29T12:38:14;0.65;;;0.52;;
49946;SDS011;35839;48.662;13.300;2024-03-29T12:40:42;1.75;;;0.60;;
49946;SDS011;35839;48.662;13.300;2024-03-29T12:43:09;1.15;;;0.65;;
49946;SDS011;35839;48.662;13.300;2024-03-29T12:45:35;2.25;;;0.50;;
49946;SDS011;35839;48.662;13.300;2024-03-29T12:48:02;0.70;;;0.43;;
49946;SDS011;35839;48.662;13.300;2024-03-29T12:50:34;1.70;;;0.70;;
49946;SDS011;35839;48.662;13.300;2024-03-29T12:53:06;1.80;;;0.68;;
49946;SDS011;35839;48.662;13.300;2024-03-29T12:55:33;1.40;;;0.88;;
49946;SDS011;35839;48.662;13.300;2024-03-29T12:58:01;0.80;;;0.40;;
49946;SDS011;35839;48.662;13.300;2024-03-29T13:00:32;1.20;;;0.70;;
49946;SDS011;35839;48.662;13.300;2024-03-29T13:02:59;1.25;;;0.77;;
49946;SDS011;35839;48.662;13.300;2024-03-29T13:05:26;1.00;;;0.50;;
49946;SDS011;35839;48.662;13.300;2024-03-29T13:07:53;2.83;;;0.70;;
49946;SDS011;35839;48.662;13.300;2024-03-29T13:10:22;0.22;;;0.22;;
49946;SDS011;35839;48.662;13.300;2024-03-29T13:12:48;1.67;;;0.47;;
49946;SDS011;35839;48.662;13.300;2024-03-29T13:15:17;0.40;;;0.32;;
49946;SDS011;35839;48.662;13.300;2024-03-29T13:17:44;1.08;;;0.52;;
49946;SDS011;35839;48.662;13.300;2024-03-29T13:20:11;1.27;;;0.57;;
49946;SDS011;35839;48.662;13.300;2024-03-29T13:22:37;1.45;;;0.63;;
49946;SDS011;35839;48.662;13.300;2024-03-29T13:25:03;1.98;;;0.65;;
49946;SDS011;35839;48.662;13.300;2024-03-29T13:27:33;0.98;;;0.60;;
49946;SDS011;35839;48.662;13.300;2024-03-29T13:29:58;3.58;;;1.00;;
49946;SDS011;35839;48.662;13.300;2024-03-29T13:32:25;0.95;;;0.40;;
49946;SDS011;35839;48.662;13.300;2024-03-29T13:34:53;3.08;;;0.90;;
49946;SDS011;35839;48.662;13.300;2024-03-29T13:37:18;1.33;;;0.68;;
49946;SDS011;35839;48.662;13.300;2024-03-29T13:39:44;0.75;;;0.52;;
49946;SDS011;35839;48.662;13.300;2024-03-29T13:42:09;3.88;;;0.90;;
49946;SDS011;35839;48.662;13.300;2024-03-29T13:44:37;0.80;;;0.70;;
49946;SDS011;35839;48.662;13.300;2024-03-29T13:47:03;1.35;;;0.80;;
49946;SDS011;35839;48.662;13.300;2024-03-29T13:49:29;2.15;;;0.47;;
49946;SDS011;35839;48.662;13.300;2024-03-29T13:51:58;3.42;;;0.90;;
49946;SDS011;35839;48.662;13.300;2024-03-29T13:54:23;3.08;;;0.60;;
49946;SDS011;35839;48.662;13.300;2024-03-29T13:56:49;3.17;;;1.00;;
49946;SDS011;35839;48.662;13.300;2024-03-29T13:59:14;4.22;;;0.90;;
49946;SDS011;35839;48.662;13.300;2024-03-29T14:01:40;0.90;;;0.57;;
49946;SDS011;35839;48.662;13.300;2024-03-29T14:04:07;2.08;;;1.02;;
49946;SDS011;35839;48.662;13.300;2024-03-29T14:06:32;4.70;;;2.90;;
49946;SDS011;35839;48.662;13.300;2024-03-29T14:08:57;4.07;;;1.77;;
49946;SDS011;35839;48.662;13.300;2024-03-29T14:11:25;1.92;;;1.10;;
49946;SDS011;35839;48.662;13.300;2024-03-29T14:13:51;1.58;;;0.60;;
49946;SDS011;35839;48.662;13.300;2024-03-29T14:16:21;1.45;;;0.70;;
49946;SDS011;35839;48.662;13.300;2024-03-29T14:18:47;3.17;;;1.38;;
49946;SDS011;35839;48.662;13.300;2024-03-29T14:21:13;3.45;;;1.63;;
49946;SDS011;35839;48.662;13.300;2024-03-29T14:23:38;2.15;;;1.13;;
49946;SDS011;35839;48.662;13.300;2024-03-29T14:26:05;1.90;;;1.08;;
49946;SDS011;35839;48.662;13.300;2024-03-29T14:28:31;2.47;;;1.00;;
49946;SDS011;35839;48.662;13.300;2024-03-29T14:30:56;5.70;;;2.03;;
49946;SDS011;35839;48.662;13.300;2024-03-29T14:33:22;0.63;;;0.63;;